Daytona Beach International Airport
KDAB : now visible

Aeroporto :











RITROVATECI SU...

 
LOGIN :

Iscrizione | Disclaimer

   EN    FR    IT 

 









Sommario :    VFR   VFR Marginale   IFR   IFR Intensivo   IFR Molto Intensivo
Visibilità : 
Base nubi : 
>= 8 km
>= 3000ft
5 / 8 km
1000 / 3000 ft
1500m / 5 km
500 / 1000 ft
800 / 1500m
200 / 500 ft
< 800m
< 200 ft
Simboli :   Temporali  Nebbia  Neve Forte  Precipitazioni Forti  Vento > 20 kt






- Altitudine del aeroporto : 34 ft
- Codice IATA : DAB


KDAB - Daytona Beach International

ULTIMO METAR :
  • 070053Z 00000KT 10SM CLR 16/15 A3017 RMK AO2 SLP215 T01560150

METARs OBSOLETI :
  • 062353Z 00000KT 10SM FEW050 FEW200 18/16 A3017 RMK AO2 SLP216 T01780156 10239 20167 53010
  • 062253Z 00000KT 10SM FEW050 FEW200 18/16 A3015 RMK AO2 SLP209 T01830156

TAF KDAB
Valido dal 07 a 00 ore il 08 a 00 ore UTC


062345Z 0700/0724 00000KT P6SM FEW050 FEW200
FM071500 03007KT P6SM FEW035 BKN100



MetMap, La meteo Aeronautica in un colpo d'occhio ! - Copyright ORBIFLY Dicembre 2007 - Disclaimer

ORBIFLY MET'MAP TEAM :

Programmazione e sviluppo : Alexandra Zaïnal
Concezione : Baudouin d'Aumeries
Aiuto per la programmazione : Marc-Olivier Méhu
Supporto tecnico e logistico : Manuel Goepfert
Aiuto per la traduzione : Arnaldo La Scala

Contatto : metmap@orbifly.com




FONTI E CREDITI :

   NOAA       Earth
Advisory